sensor_id;sensor_type;location;lat;lon;timestamp;P1;durP1;ratioP1;P2;durP2;ratioP2
11964;SDS011;6042;41.326;19.826;2023-03-01T00:01:25;22.97;;;4.67;;
11964;SDS011;6042;41.326;19.826;2023-03-01T00:03:56;16.07;;;4.70;;
11964;SDS011;6042;41.326;19.826;2023-03-01T00:06:26;18.67;;;4.30;;
11964;SDS011;6042;41.326;19.826;2023-03-01T00:08:55;19.80;;;4.20;;
11964;SDS011;6042;41.326;19.826;2023-03-01T00:11:24;15.67;;;4.10;;
11964;SDS011;6042;41.326;19.826;2023-03-01T00:13:55;18.57;;;5.00;;
11964;SDS011;6042;41.326;19.826;2023-03-01T00:16:26;18.73;;;4.50;;
11964;SDS011;6042;41.326;19.826;2023-03-01T00:18:58;13.60;;;4.40;;
11964;SDS011;6042;41.326;19.826;2023-03-01T00:21:27;14.73;;;5.07;;
11964;SDS011;6042;41.326;19.826;2023-03-01T00:23:56;18.87;;;4.60;;
11964;SDS011;6042;41.326;19.826;2023-03-01T00:26:25;19.63;;;5.33;;
11964;SDS011;6042;41.326;19.826;2023-03-01T00:28:54;11.87;;;4.47;;
11964;SDS011;6042;41.326;19.826;2023-03-01T00:31:25;15.83;;;4.60;;
11964;SDS011;6042;41.326;19.826;2023-03-01T00:33:56;14.47;;;4.40;;
11964;SDS011;6042;41.326;19.826;2023-03-01T00:36:27;15.47;;;4.50;;
11964;SDS011;6042;41.326;19.826;2023-03-01T00:38:58;16.80;;;4.93;;
11964;SDS011;6042;41.326;19.826;2023-03-01T00:41:27;14.77;;;5.20;;
11964;SDS011;6042;41.326;19.826;2023-03-01T00:43:56;15.27;;;4.97;;
11964;SDS011;6042;41.326;19.826;2023-03-01T00:46:25;14.90;;;4.57;;
11964;SDS011;6042;41.326;19.826;2023-03-01T00:48:54;17.47;;;5.27;;
11964;SDS011;6042;41.326;19.826;2023-03-01T00:51:24;13.57;;;4.40;;
11964;SDS011;6042;41.326;19.826;2023-03-01T00:53:57;15.50;;;5.67;;
11964;SDS011;6042;41.326;19.826;2023-03-01T00:56:29;14.03;;;4.97;;
11964;SDS011;6042;41.326;19.826;2023-03-01T00:58:58;16.73;;;4.83;;
11964;SDS011;6042;41.326;19.826;2023-03-01T01:01:30;19.23;;;5.10;;
11964;SDS011;6042;41.326;19.826;2023-03-01T01:04:00;19.30;;;5.53;;
11964;SDS011;6042;41.326;19.826;2023-03-01T01:06:31;16.37;;;5.27;;
11964;SDS011;6042;41.326;19.826;2023-03-01T01:09:03;17.30;;;5.50;;
11964;SDS011;6042;41.326;19.826;2023-03-01T01:11:39;10.73;;;5.07;;
11964;SDS011;6042;41.326;19.826;2023-03-01T01:14:07;12.27;;;5.40;;
11964;SDS011;6042;41.326;19.826;2023-03-01T01:16:37;11.87;;;4.80;;
11964;SDS011;6042;41.326;19.826;2023-03-01T01:19:05;16.07;;;5.50;;
11964;SDS011;6042;41.326;19.826;2023-03-01T01:21:35;14.17;;;5.47;;
11964;SDS011;6042;41.326;19.826;2023-03-01T01:29:47;18.87;;;5.60;;
11964;SDS011;6042;41.326;19.826;2023-03-01T01:32:19;11.60;;;5.17;;
11964;SDS011;6042;41.326;19.826;2023-03-01T01:34:52;9.83;;;4.93;;
11964;SDS011;6042;41.326;19.826;2023-03-01T01:37:25;11.30;;;4.87;;
11964;SDS011;6042;41.326;19.826;2023-03-01T01:39:57;12.67;;;4.93;;
11964;SDS011;6042;41.326;19.826;2023-03-01T01:42:27;12.37;;;4.70;;
11964;SDS011;6042;41.326;19.826;2023-03-01T01:48:39;15.73;;;4.77;;
11964;SDS011;6042;41.326;19.826;2023-03-01T01:51:11;15.23;;;5.03;;
11964;SDS011;6042;41.326;19.826;2023-03-01T01:53:44;11.53;;;4.90;;
11964;SDS011;6042;41.326;19.826;2023-03-01T01:56:16;11.77;;;4.53;;
11964;SDS011;6042;41.326;19.826;2023-03-01T01:58:46;10.73;;;4.20;;
11964;SDS011;6042;41.326;19.826;2023-03-01T02:01:15;10.77;;;4.33;;
11964;SDS011;6042;41.326;19.826;2023-03-01T02:03:45;9.60;;;4.13;;
11964;SDS011;6042;41.326;19.826;2023-03-01T02:06:17;9.57;;;4.30;;
11964;SDS011;6042;41.326;19.826;2023-03-01T02:08:49;10.07;;;4.03;;
11964;SDS011;6042;41.326;19.826;2023-03-01T02:11:20;6.27;;;3.47;;
11964;SDS011;6042;41.326;19.826;2023-03-01T02:13:49;7.90;;;4.07;;
11964;SDS011;6042;41.326;19.826;2023-03-01T02:16:18;10.93;;;3.83;;
11964;SDS011;6042;41.326;19.826;2023-03-01T02:18:49;8.23;;;3.60;;
11964;SDS011;6042;41.326;19.826;2023-03-01T02:21:22;10.90;;;3.97;;
11964;SDS011;6042;41.326;19.826;2023-03-01T02:24:03;9.33;;;3.33;;
11964;SDS011;6042;41.326;19.826;2023-03-01T02:26:39;8.13;;;3.57;;
11964;SDS011;6042;41.326;19.826;2023-03-01T02:29:11;15.40;;;3.67;;
11964;SDS011;6042;41.326;19.826;2023-03-01T02:31:40;11.57;;;3.37;;
11964;SDS011;6042;41.326;19.826;2023-03-01T02:34:13;9.77;;;3.00;;
11964;SDS011;6042;41.326;19.826;2023-03-01T02:36:43;6.73;;;3.43;;
11964;SDS011;6042;41.326;19.826;2023-03-01T02:39:17;8.17;;;3.00;;
11964;SDS011;6042;41.326;19.826;2023-03-01T02:41:51;8.27;;;3.27;;
11964;SDS011;6042;41.326;19.826;2023-03-01T02:44:23;8.23;;;3.37;;
11964;SDS011;6042;41.326;19.826;2023-03-01T02:46:52;12.37;;;3.00;;
11964;SDS011;6042;41.326;19.826;2023-03-01T02:49:25;6.50;;;2.93;;
11964;SDS011;6042;41.326;19.826;2023-03-01T02:51:59;5.43;;;2.70;;
11964;SDS011;6042;41.326;19.826;2023-03-01T02:54:40;8.57;;;3.00;;
11964;SDS011;6042;41.326;19.826;2023-03-01T02:57:12;6.03;;;2.63;;
11964;SDS011;6042;41.326;19.826;2023-03-01T02:59:43;11.43;;;3.03;;
11964;SDS011;6042;41.326;19.826;2023-03-01T03:02:18;4.73;;;2.30;;
11964;SDS011;6042;41.326;19.826;2023-03-01T03:05:12;6.63;;;2.23;;
11964;SDS011;6042;41.326;19.826;2023-03-01T03:07:43;7.13;;;2.27;;
11964;SDS011;6042;41.326;19.826;2023-03-01T03:10:14;5.37;;;2.57;;
11964;SDS011;6042;41.326;19.826;2023-03-01T03:12:48;7.07;;;2.50;;
11964;SDS011;6042;41.326;19.826;2023-03-01T03:15:20;4.63;;;2.10;;
11964;SDS011;6042;41.326;19.826;2023-03-01T03:17:49;7.13;;;2.03;;
11964;SDS011;6042;41.326;19.826;2023-03-01T03:20:19;5.80;;;2.27;;
11964;SDS011;6042;41.326;19.826;2023-03-01T03:22:50;7.73;;;2.37;;
11964;SDS011;6042;41.326;19.826;2023-03-01T03:25:21;7.60;;;2.20;;
11964;SDS011;6042;41.326;19.826;2023-03-01T03:27:51;4.10;;;2.20;;
11964;SDS011;6042;41.326;19.826;2023-03-01T03:30:25;4.60;;;2.10;;
11964;SDS011;6042;41.326;19.826;2023-03-01T03:32:55;5.40;;;2.10;;
11964;SDS011;6042;41.326;19.826;2023-03-01T03:35:24;6.47;;;2.00;;
11964;SDS011;6042;41.326;19.826;2023-03-01T03:37:57;4.87;;;1.90;;
11964;SDS011;6042;41.326;19.826;2023-03-01T03:40:33;6.07;;;2.13;;
11964;SDS011;6042;41.326;19.826;2023-03-01T03:43:04;6.80;;;1.83;;
11964;SDS011;6042;41.326;19.826;2023-03-01T03:45:35;4.33;;;2.13;;
11964;SDS011;6042;41.326;19.826;2023-03-01T03:48:05;6.43;;;2.17;;
11964;SDS011;6042;41.326;19.826;2023-03-01T03:50:36;4.10;;;2.07;;
11964;SDS011;6042;41.326;19.826;2023-03-01T03:53:06;5.83;;;1.60;;
11964;SDS011;6042;41.326;19.826;2023-03-01T03:55:36;5.13;;;1.93;;
11964;SDS011;6042;41.326;19.826;2023-03-01T03:58:06;5.87;;;2.40;;
11964;SDS011;6042;41.326;19.826;2023-03-01T04:00:38;8.83;;;2.10;;
11964;SDS011;6042;41.326;19.826;2023-03-01T04:03:08;9.23;;;2.10;;
11964;SDS011;6042;41.326;19.826;2023-03-01T04:05:38;5.83;;;2.23;;
11964;SDS011;6042;41.326;19.826;2023-03-01T04:08:08;7.13;;;2.07;;
11964;SDS011;6042;41.326;19.826;2023-03-01T04:10:37;5.00;;;2.03;;
11964;SDS011;6042;41.326;19.826;2023-03-01T04:13:08;4.90;;;2.00;;
11964;SDS011;6042;41.326;19.826;2023-03-01T04:15:40;4.67;;;1.90;;
11964;SDS011;6042;41.326;19.826;2023-03-01T04:18:10;6.30;;;2.17;;
11964;SDS011;6042;41.326;19.826;2023-03-01T04:20:40;3.27;;;2.00;;
11964;SDS011;6042;41.326;19.826;2023-03-01T04:23:12;5.50;;;1.93;;
11964;SDS011;6042;41.326;19.826;2023-03-01T04:25:45;3.63;;;1.90;;
11964;SDS011;6042;41.326;19.826;2023-03-01T04:28:20;4.77;;;2.10;;
11964;SDS011;6042;41.326;19.826;2023-03-01T04:30:52;4.60;;;1.90;;
11964;SDS011;6042;41.326;19.826;2023-03-01T04:33:22;3.30;;;2.00;;
11964;SDS011;6042;41.326;19.826;2023-03-01T04:35:51;3.67;;;1.90;;
11964;SDS011;6042;41.326;19.826;2023-03-01T04:38:19;7.70;;;2.23;;
11964;SDS011;6042;41.326;19.826;2023-03-01T04:40:48;6.57;;;2.23;;
11964;SDS011;6042;41.326;19.826;2023-03-01T04:43:17;5.57;;;1.80;;
11964;SDS011;6042;41.326;19.826;2023-03-01T04:45:45;4.83;;;2.00;;
11964;SDS011;6042;41.326;19.826;2023-03-01T04:48:15;4.43;;;1.87;;
11964;SDS011;6042;41.326;19.826;2023-03-01T04:50:43;3.90;;;2.00;;
11964;SDS011;6042;41.326;19.826;2023-03-01T04:53:11;5.20;;;1.77;;
11964;SDS011;6042;41.326;19.826;2023-03-01T04:55:40;3.07;;;1.53;;
11964;SDS011;6042;41.326;19.826;2023-03-01T04:58:08;6.30;;;1.90;;
11964;SDS011;6042;41.326;19.826;2023-03-01T05:00:36;3.93;;;1.70;;
11964;SDS011;6042;41.326;19.826;2023-03-01T05:03:05;4.77;;;1.90;;
11964;SDS011;6042;41.326;19.826;2023-03-01T05:05:35;5.90;;;1.80;;
11964;SDS011;6042;41.326;19.826;2023-03-01T05:08:06;5.27;;;2.10;;
11964;SDS011;6042;41.326;19.826;2023-03-01T05:10:43;2.80;;;1.60;;
11964;SDS011;6042;41.326;19.826;2023-03-01T05:13:13;8.57;;;1.77;;
11964;SDS011;6042;41.326;19.826;2023-03-01T05:15:47;5.83;;;2.03;;
11964;SDS011;6042;41.326;19.826;2023-03-01T05:18:17;6.03;;;1.90;;
11964;SDS011;6042;41.326;19.826;2023-03-01T05:20:46;7.90;;;1.77;;
11964;SDS011;6042;41.326;19.826;2023-03-01T05:23:15;6.87;;;2.00;;
11964;SDS011;6042;41.326;19.826;2023-03-01T05:25:43;8.30;;;2.30;;
11964;SDS011;6042;41.326;19.826;2023-03-01T05:28:15;6.13;;;1.97;;
11964;SDS011;6042;41.326;19.826;2023-03-01T05:30:43;11.07;;;2.60;;
11964;SDS011;6042;41.326;19.826;2023-03-01T05:33:12;4.37;;;1.60;;
11964;SDS011;6042;41.326;19.826;2023-03-01T05:35:40;6.13;;;1.80;;
11964;SDS011;6042;41.326;19.826;2023-03-01T05:38:12;6.10;;;2.00;;
11964;SDS011;6042;41.326;19.826;2023-03-01T05:40:41;4.60;;;2.00;;
11964;SDS011;6042;41.326;19.826;2023-03-01T05:43:11;4.30;;;1.80;;
11964;SDS011;6042;41.326;19.826;2023-03-01T05:45:41;3.27;;;1.90;;
11964;SDS011;6042;41.326;19.826;2023-03-01T05:48:10;5.53;;;2.23;;
11964;SDS011;6042;41.326;19.826;2023-03-01T05:50:39;9.83;;;2.30;;
11964;SDS011;6042;41.326;19.826;2023-03-01T05:53:10;6.53;;;2.07;;
11964;SDS011;6042;41.326;19.826;2023-03-01T05:55:42;4.87;;;2.07;;
11964;SDS011;6042;41.326;19.826;2023-03-01T05:58:13;11.50;;;2.43;;
11964;SDS011;6042;41.326;19.826;2023-03-01T06:00:43;8.03;;;2.30;;
11964;SDS011;6042;41.326;19.826;2023-03-01T06:03:14;3.83;;;1.90;;
11964;SDS011;6042;41.326;19.826;2023-03-01T06:05:45;7.40;;;2.33;;
11964;SDS011;6042;41.326;19.826;2023-03-01T06:08:14;7.97;;;2.30;;
11964;SDS011;6042;41.326;19.826;2023-03-01T06:10:43;10.77;;;5.03;;
11964;SDS011;6042;41.326;19.826;2023-03-01T06:13:11;7.13;;;2.40;;
11964;SDS011;6042;41.326;19.826;2023-03-01T06:15:40;8.10;;;2.53;;
11964;SDS011;6042;41.326;19.826;2023-03-01T06:18:08;6.53;;;2.20;;
11964;SDS011;6042;41.326;19.826;2023-03-01T06:20:37;13.53;;;3.70;;
11964;SDS011;6042;41.326;19.826;2023-03-01T06:23:05;7.53;;;2.10;;
11964;SDS011;6042;41.326;19.826;2023-03-01T06:25:37;9.50;;;2.43;;
11964;SDS011;6042;41.326;19.826;2023-03-01T06:28:05;8.50;;;3.77;;
11964;SDS011;6042;41.326;19.826;2023-03-01T06:30:34;9.43;;;2.47;;
11964;SDS011;6042;41.326;19.826;2023-03-01T06:33:02;7.20;;;2.10;;
11964;SDS011;6042;41.326;19.826;2023-03-01T06:35:31;8.73;;;2.27;;
11964;SDS011;6042;41.326;19.826;2023-03-01T06:38:00;5.73;;;2.33;;
11964;SDS011;6042;41.326;19.826;2023-03-01T06:40:30;8.30;;;2.60;;
11964;SDS011;6042;41.326;19.826;2023-03-01T06:43:00;13.37;;;2.53;;
11964;SDS011;6042;41.326;19.826;2023-03-01T06:45:29;9.27;;;2.37;;
11964;SDS011;6042;41.326;19.826;2023-03-01T06:48:03;7.80;;;2.30;;
11964;SDS011;6042;41.326;19.826;2023-03-01T06:50:33;7.07;;;2.20;;
11964;SDS011;6042;41.326;19.826;2023-03-01T06:53:02;3.00;;;2.07;;
11964;SDS011;6042;41.326;19.826;2023-03-01T06:55:30;3.83;;;2.17;;
11964;SDS011;6042;41.326;19.826;2023-03-01T06:58:01;7.60;;;2.67;;
11964;SDS011;6042;41.326;19.826;2023-03-01T07:00:31;5.97;;;2.37;;
11964;SDS011;6042;41.326;19.826;2023-03-01T07:03:00;6.00;;;2.03;;
11964;SDS011;6042;41.326;19.826;2023-03-01T07:05:30;7.87;;;2.47;;
11964;SDS011;6042;41.326;19.826;2023-03-01T07:07:58;10.97;;;2.40;;
11964;SDS011;6042;41.326;19.826;2023-03-01T07:10:27;11.70;;;2.50;;
11964;SDS011;6042;41.326;19.826;2023-03-01T07:12:55;6.00;;;2.10;;
11964;SDS011;6042;41.326;19.826;2023-03-01T07:15:26;8.27;;;2.40;;
11964;SDS011;6042;41.326;19.826;2023-03-01T07:17:55;7.90;;;2.47;;
11964;SDS011;6042;41.326;19.826;2023-03-01T07:20:24;8.43;;;2.43;;
11964;SDS011;6042;41.326;19.826;2023-03-01T07:22:53;7.40;;;2.10;;
11964;SDS011;6042;41.326;19.826;2023-03-01T07:25:22;6.33;;;2.10;;
11964;SDS011;6042;41.326;19.826;2023-03-01T07:27:51;4.27;;;2.40;;
11964;SDS011;6042;41.326;19.826;2023-03-01T07:30:20;8.10;;;2.30;;
11964;SDS011;6042;41.326;19.826;2023-03-01T07:32:54;7.70;;;2.30;;
11964;SDS011;6042;41.326;19.826;2023-03-01T07:35:24;9.50;;;3.00;;
11964;SDS011;6042;41.326;19.826;2023-03-01T07:37:53;8.90;;;2.73;;
11964;SDS011;6042;41.326;19.826;2023-03-01T07:40:25;14.40;;;3.40;;
11964;SDS011;6042;41.326;19.826;2023-03-01T07:42:57;6.57;;;2.80;;
11964;SDS011;6042;41.326;19.826;2023-03-01T07:45:26;10.73;;;3.30;;
11964;SDS011;6042;41.326;19.826;2023-03-01T07:47:56;5.97;;;3.03;;
11964;SDS011;6042;41.326;19.826;2023-03-01T07:50:24;11.60;;;3.00;;
11964;SDS011;6042;41.326;19.826;2023-03-01T07:52:53;5.20;;;2.97;;
11964;SDS011;6042;41.326;19.826;2023-03-01T07:55:22;9.23;;;2.60;;
11964;SDS011;6042;41.326;19.826;2023-03-01T07:57:51;6.80;;;2.70;;
11964;SDS011;6042;41.326;19.826;2023-03-01T08:00:20;9.67;;;3.53;;
11964;SDS011;6042;41.326;19.826;2023-03-01T08:02:48;9.90;;;2.70;;
11964;SDS011;6042;41.326;19.826;2023-03-01T08:05:18;9.00;;;2.37;;
11964;SDS011;6042;41.326;19.826;2023-03-01T08:07:48;6.00;;;3.07;;
11964;SDS011;6042;41.326;19.826;2023-03-01T08:10:17;8.00;;;2.77;;
11964;SDS011;6042;41.326;19.826;2023-03-01T08:12:45;7.43;;;2.83;;
11964;SDS011;6042;41.326;19.826;2023-03-01T08:15:14;16.67;;;2.97;;
11964;SDS011;6042;41.326;19.826;2023-03-01T08:17:42;14.93;;;3.10;;
11964;SDS011;6042;41.326;19.826;2023-03-01T08:20:26;7.93;;;2.40;;
11964;SDS011;6042;41.326;19.826;2023-03-01T08:22:57;8.50;;;2.93;;
11964;SDS011;6042;41.326;19.826;2023-03-01T08:25:25;13.17;;;2.80;;
11964;SDS011;6042;41.326;19.826;2023-03-01T08:27:54;8.63;;;3.13;;
11964;SDS011;6042;41.326;19.826;2023-03-01T08:30:22;9.27;;;3.17;;
11964;SDS011;6042;41.326;19.826;2023-03-01T08:32:51;7.20;;;2.50;;
11964;SDS011;6042;41.326;19.826;2023-03-01T08:35:21;7.47;;;2.67;;
11964;SDS011;6042;41.326;19.826;2023-03-01T08:37:50;7.00;;;2.17;;
11964;SDS011;6042;41.326;19.826;2023-03-01T08:40:19;6.87;;;2.53;;
11964;SDS011;6042;41.326;19.826;2023-03-01T08:42:47;9.87;;;2.83;;
11964;SDS011;6042;41.326;19.826;2023-03-01T08:45:16;6.27;;;2.67;;
11964;SDS011;6042;41.326;19.826;2023-03-01T08:47:45;5.10;;;2.30;;
11964;SDS011;6042;41.326;19.826;2023-03-01T08:50:14;10.30;;;3.20;;
11964;SDS011;6042;41.326;19.826;2023-03-01T08:52:44;5.90;;;2.67;;
11964;SDS011;6042;41.326;19.826;2023-03-01T08:55:12;9.57;;;2.50;;
11964;SDS011;6042;41.326;19.826;2023-03-01T08:57:42;8.77;;;2.53;;
11964;SDS011;6042;41.326;19.826;2023-03-01T09:00:14;7.13;;;2.90;;
11964;SDS011;6042;41.326;19.826;2023-03-01T09:02:44;5.03;;;2.50;;
11964;SDS011;6042;41.326;19.826;2023-03-01T09:05:12;6.83;;;2.23;;
11964;SDS011;6042;41.326;19.826;2023-03-01T09:07:40;8.60;;;2.40;;
11964;SDS011;6042;41.326;19.826;2023-03-01T09:10:11;8.80;;;2.90;;
11964;SDS011;6042;41.326;19.826;2023-03-01T09:12:39;4.60;;;2.30;;
11964;SDS011;6042;41.326;19.826;2023-03-01T09:15:08;8.77;;;2.90;;
11964;SDS011;6042;41.326;19.826;2023-03-01T09:17:37;8.30;;;3.23;;
11964;SDS011;6042;41.326;19.826;2023-03-01T09:20:06;9.00;;;2.53;;
11964;SDS011;6042;41.326;19.826;2023-03-01T09:22:35;12.07;;;3.27;;
11964;SDS011;6042;41.326;19.826;2023-03-01T09:25:03;8.17;;;2.80;;
11964;SDS011;6042;41.326;19.826;2023-03-01T09:27:34;8.10;;;3.00;;
11964;SDS011;6042;41.326;19.826;2023-03-01T09:30:02;11.77;;;3.20;;
11964;SDS011;6042;41.326;19.826;2023-03-01T09:32:31;9.40;;;2.90;;
11964;SDS011;6042;41.326;19.826;2023-03-01T09:35:00;18.33;;;3.67;;
11964;SDS011;6042;41.326;19.826;2023-03-01T09:37:31;13.90;;;3.60;;
11964;SDS011;6042;41.326;19.826;2023-03-01T09:40:01;9.33;;;2.90;;
11964;SDS011;6042;41.326;19.826;2023-03-01T09:42:35;6.53;;;2.50;;
11964;SDS011;6042;41.326;19.826;2023-03-01T09:45:15;10.10;;;3.43;;
11964;SDS011;6042;41.326;19.826;2023-03-01T09:47:54;14.17;;;3.40;;
11964;SDS011;6042;41.326;19.826;2023-03-01T09:50:23;9.03;;;3.43;;
11964;SDS011;6042;41.326;19.826;2023-03-01T09:52:59;16.27;;;3.50;;
11964;SDS011;6042;41.326;19.826;2023-03-01T09:55:30;9.97;;;3.27;;
11964;SDS011;6042;41.326;19.826;2023-03-01T09:58:04;9.07;;;2.73;;
11964;SDS011;6042;41.326;19.826;2023-03-01T10:00:47;7.97;;;3.57;;
11964;SDS011;6042;41.326;19.826;2023-03-01T10:03:17;10.60;;;3.87;;
11964;SDS011;6042;41.326;19.826;2023-03-01T10:05:55;11.60;;;3.60;;
11964;SDS011;6042;41.326;19.826;2023-03-01T10:08:29;24.73;;;3.90;;
11964;SDS011;6042;41.326;19.826;2023-03-01T10:11:16;11.97;;;3.33;;
11964;SDS011;6042;41.326;19.826;2023-03-01T10:13:54;12.33;;;3.60;;
11964;SDS011;6042;41.326;19.826;2023-03-01T10:16:27;13.70;;;4.40;;
11964;SDS011;6042;41.326;19.826;2023-03-01T10:19:05;8.77;;;3.50;;
11964;SDS011;6042;41.326;19.826;2023-03-01T10:21:40;13.20;;;3.50;;
11964;SDS011;6042;41.326;19.826;2023-03-01T10:24:12;12.73;;;4.00;;
11964;SDS011;6042;41.326;19.826;2023-03-01T10:26:47;21.00;;;8.80;;
11964;SDS011;6042;41.326;19.826;2023-03-01T10:29:23;16.90;;;4.57;;
11964;SDS011;6042;41.326;19.826;2023-03-01T10:31:56;11.73;;;4.27;;
11964;SDS011;6042;41.326;19.826;2023-03-01T10:34:31;13.73;;;4.07;;
11964;SDS011;6042;41.326;19.826;2023-03-01T10:37:04;13.37;;;4.27;;
11964;SDS011;6042;41.326;19.826;2023-03-01T10:39:39;14.87;;;3.83;;
11964;SDS011;6042;41.326;19.826;2023-03-01T10:42:25;10.67;;;4.20;;
11964;SDS011;6042;41.326;19.826;2023-03-01T10:44:58;9.17;;;3.83;;
11964;SDS011;6042;41.326;19.826;2023-03-01T10:48:02;15.10;;;4.97;;
11964;SDS011;6042;41.326;19.826;2023-03-01T10:50:32;14.40;;;4.80;;
11964;SDS011;6042;41.326;19.826;2023-03-01T10:56:48;10.43;;;3.97;;
11964;SDS011;6042;41.326;19.826;2023-03-01T10:59:21;15.70;;;4.30;;
11964;SDS011;6042;41.326;19.826;2023-03-01T11:02:04;16.87;;;5.40;;
11964;SDS011;6042;41.326;19.826;2023-03-01T11:04:56;10.70;;;3.93;;
11964;SDS011;6042;41.326;19.826;2023-03-01T11:07:26;13.20;;;3.90;;
11964;SDS011;6042;41.326;19.826;2023-03-01T11:09:55;16.90;;;4.73;;
11964;SDS011;6042;41.326;19.826;2023-03-01T11:12:25;10.23;;;4.30;;
11964;SDS011;6042;41.326;19.826;2023-03-01T11:14:56;20.23;;;4.60;;
11964;SDS011;6042;41.326;19.826;2023-03-01T11:17:27;17.60;;;5.00;;
11964;SDS011;6042;41.326;19.826;2023-03-01T11:20:13;10.90;;;3.90;;
11964;SDS011;6042;41.326;19.826;2023-03-01T11:22:54;13.07;;;4.00;;
11964;SDS011;6042;41.326;19.826;2023-03-01T11:25:29;15.40;;;4.00;;
11964;SDS011;6042;41.326;19.826;2023-03-01T11:28:03;16.13;;;4.83;;
11964;SDS011;6042;41.326;19.826;2023-03-01T11:30:34;22.37;;;4.60;;
11964;SDS011;6042;41.326;19.826;2023-03-01T11:33:13;16.23;;;4.50;;
11964;SDS011;6042;41.326;19.826;2023-03-01T11:35:49;13.77;;;5.03;;
11964;SDS011;6042;41.326;19.826;2023-03-01T11:38:24;19.33;;;5.47;;
11964;SDS011;6042;41.326;19.826;2023-03-01T11:40:57;9.97;;;3.67;;
11964;SDS011;6042;41.326;19.826;2023-03-01T11:43:33;11.17;;;3.90;;
11964;SDS011;6042;41.326;19.826;2023-03-01T11:49:18;14.43;;;4.10;;
11964;SDS011;6042;41.326;19.826;2023-03-01T11:52:06;11.20;;;3.57;;
11964;SDS011;6042;41.326;19.826;2023-03-01T11:54:50;13.67;;;4.03;;
11964;SDS011;6042;41.326;19.826;2023-03-01T11:57:34;14.23;;;4.37;;
11964;SDS011;6042;41.326;19.826;2023-03-01T12:00:23;17.13;;;4.43;;
11964;SDS011;6042;41.326;19.826;2023-03-01T12:03:23;14.40;;;3.90;;
11964;SDS011;6042;41.326;19.826;2023-03-01T12:06:08;14.77;;;3.80;;
11964;SDS011;6042;41.326;19.826;2023-03-01T12:08:53;14.63;;;4.43;;
11964;SDS011;6042;41.326;19.826;2023-03-01T12:11:34;13.07;;;4.27;;
11964;SDS011;6042;41.326;19.826;2023-03-01T12:17:21;16.00;;;3.93;;
11964;SDS011;6042;41.326;19.826;2023-03-01T12:20:15;14.67;;;4.20;;
11964;SDS011;6042;41.326;19.826;2023-03-01T12:22:56;11.10;;;4.47;;
11964;SDS011;6042;41.326;19.826;2023-03-01T12:25:46;14.73;;;3.27;;
11964;SDS011;6042;41.326;19.826;2023-03-01T12:28:22;11.23;;;4.13;;
11964;SDS011;6042;41.326;19.826;2023-03-01T12:31:12;15.93;;;4.10;;
11964;SDS011;6042;41.326;19.826;2023-03-01T12:33:59;19.67;;;4.57;;
11964;SDS011;6042;41.326;19.826;2023-03-01T12:36:39;14.33;;;4.60;;
11964;SDS011;6042;41.326;19.826;2023-03-01T12:39:23;17.67;;;4.30;;
11964;SDS011;6042;41.326;19.826;2023-03-01T12:42:02;12.50;;;3.90;;
11964;SDS011;6042;41.326;19.826;2023-03-01T12:44:40;13.90;;;4.10;;
11964;SDS011;6042;41.326;19.826;2023-03-01T12:47:30;10.47;;;4.43;;
11964;SDS011;6042;41.326;19.826;2023-03-01T12:50:17;11.43;;;3.60;;
11964;SDS011;6042;41.326;19.826;2023-03-01T12:52:49;16.53;;;4.93;;
11964;SDS011;6042;41.326;19.826;2023-03-01T12:55:26;12.40;;;4.00;;
11964;SDS011;6042;41.326;19.826;2023-03-01T12:58:01;15.70;;;4.33;;
11964;SDS011;6042;41.326;19.826;2023-03-01T13:00:39;8.77;;;3.53;;
11964;SDS011;6042;41.326;19.826;2023-03-01T13:03:18;11.53;;;3.67;;
11964;SDS011;6042;41.326;19.826;2023-03-01T13:05:56;12.47;;;4.50;;
11964;SDS011;6042;41.326;19.826;2023-03-01T13:08:36;12.00;;;4.00;;
11964;SDS011;6042;41.326;19.826;2023-03-01T13:11:14;14.90;;;4.53;;
11964;SDS011;6042;41.326;19.826;2023-03-01T13:13:46;11.03;;;4.17;;
11964;SDS011;6042;41.326;19.826;2023-03-01T13:16:22;13.30;;;4.57;;
11964;SDS011;6042;41.326;19.826;2023-03-01T13:19:10;13.37;;;4.97;;
11964;SDS011;6042;41.326;19.826;2023-03-01T13:21:42;12.87;;;5.97;;
11964;SDS011;6042;41.326;19.826;2023-03-01T13:24:24;15.73;;;4.80;;
11964;SDS011;6042;41.326;19.826;2023-03-01T13:27:09;16.47;;;5.07;;
11964;SDS011;6042;41.326;19.826;2023-03-01T13:29:56;14.50;;;5.47;;
11964;SDS011;6042;41.326;19.826;2023-03-01T13:32:30;9.40;;;4.80;;
11964;SDS011;6042;41.326;19.826;2023-03-01T13:38:45;10.70;;;4.67;;
11964;SDS011;6042;41.326;19.826;2023-03-01T13:41:16;11.80;;;4.53;;
11964;SDS011;6042;41.326;19.826;2023-03-01T13:44:13;17.30;;;5.00;;
11964;SDS011;6042;41.326;19.826;2023-03-01T13:46:51;11.40;;;4.97;;
11964;SDS011;6042;41.326;19.826;2023-03-01T13:49:23;13.83;;;5.00;;
11964;SDS011;6042;41.326;19.826;2023-03-01T13:52:06;12.17;;;5.00;;
11964;SDS011;6042;41.326;19.826;2023-03-01T13:54:54;19.90;;;6.20;;
11964;SDS011;6042;41.326;19.826;2023-03-01T13:57:25;14.13;;;5.70;;
11964;SDS011;6042;41.326;19.826;2023-03-01T14:00:00;12.33;;;5.27;;
11964;SDS011;6042;41.326;19.826;2023-03-01T14:02:30;10.90;;;5.10;;
11964;SDS011;6042;41.326;19.826;2023-03-01T14:05:01;17.17;;;5.77;;
11964;SDS011;6042;41.326;19.826;2023-03-01T14:07:30;13.37;;;5.77;;
11964;SDS011;6042;41.326;19.826;2023-03-01T14:10:40;9.83;;;5.67;;
11964;SDS011;6042;41.326;19.826;2023-03-01T14:19:55;18.73;;;7.67;;
11964;SDS011;6042;41.326;19.826;2023-03-01T14:22:25;14.87;;;7.10;;
11964;SDS011;6042;41.326;19.826;2023-03-01T14:24:56;19.90;;;14.60;;
11964;SDS011;6042;41.326;19.826;2023-03-01T14:27:38;13.60;;;6.47;;
11964;SDS011;6042;41.326;19.826;2023-03-01T14:30:11;18.43;;;7.00;;
11964;SDS011;6042;41.326;19.826;2023-03-01T14:32:57;13.50;;;7.13;;
11964;SDS011;6042;41.326;19.826;2023-03-01T14:35:31;17.60;;;6.57;;
11964;SDS011;6042;41.326;19.826;2023-03-01T14:38:04;17.10;;;9.03;;
11964;SDS011;6042;41.326;19.826;2023-03-01T14:40:34;14.00;;;6.43;;
11964;SDS011;6042;41.326;19.826;2023-03-01T14:43:08;16.73;;;7.83;;
11964;SDS011;6042;41.326;19.826;2023-03-01T14:45:42;19.73;;;6.90;;
11964;SDS011;6042;41.326;19.826;2023-03-01T14:48:22;14.00;;;6.87;;
11964;SDS011;6042;41.326;19.826;2023-03-01T14:58:52;18.90;;;7.40;;
11964;SDS011;6042;41.326;19.826;2023-03-01T15:01:21;14.40;;;7.63;;
11964;SDS011;6042;41.326;19.826;2023-03-01T15:03:50;16.37;;;7.90;;
11964;SDS011;6042;41.326;19.826;2023-03-01T15:06:20;24.23;;;10.27;;
11964;SDS011;6042;41.326;19.826;2023-03-01T15:08:52;15.00;;;7.27;;
11964;SDS011;6042;41.326;19.826;2023-03-01T15:11:24;15.10;;;7.90;;
11964;SDS011;6042;41.326;19.826;2023-03-01T15:13:58;14.97;;;7.23;;
11964;SDS011;6042;41.326;19.826;2023-03-01T15:16:27;19.90;;;7.80;;
11964;SDS011;6042;41.326;19.826;2023-03-01T15:18:59;16.07;;;7.07;;
11964;SDS011;6042;41.326;19.826;2023-03-01T15:21:29;17.30;;;7.70;;
11964;SDS011;6042;41.326;19.826;2023-03-01T15:24:01;24.07;;;7.83;;
11964;SDS011;6042;41.326;19.826;2023-03-01T15:26:49;18.23;;;7.60;;
11964;SDS011;6042;41.326;19.826;2023-03-01T15:29:23;23.10;;;8.07;;
11964;SDS011;6042;41.326;19.826;2023-03-01T15:31:57;13.87;;;7.33;;
11964;SDS011;6042;41.326;19.826;2023-03-01T15:34:28;19.03;;;7.70;;
11964;SDS011;6042;41.326;19.826;2023-03-01T15:36:58;16.40;;;8.07;;
11964;SDS011;6042;41.326;19.826;2023-03-01T15:39:35;19.57;;;7.77;;
11964;SDS011;6042;41.326;19.826;2023-03-01T15:42:06;13.23;;;7.97;;
11964;SDS011;6042;41.326;19.826;2023-03-01T15:44:40;17.30;;;7.70;;
11964;SDS011;6042;41.326;19.826;2023-03-01T15:47:28;16.07;;;7.67;;
11964;SDS011;6042;41.326;19.826;2023-03-01T15:50:00;21.17;;;8.40;;
11964;SDS011;6042;41.326;19.826;2023-03-01T15:52:29;22.17;;;7.97;;